Time;durP1;ratioP1;P1;durP2;ratioP2;P2;SDS_P1;SDS_P2;PMS_P1;PMS_P2;Temp;Humidity;BMP_temperature;BMP_pressure;BME280_temperature;BME280_humidity;BME280_pressure;Samples;Min_cycle;Max_cycle;Signal;HPM_P1;HPM_P2
2023/03/01 00:01:37;;;;;;;4.00;3.55;;;;;;;7.13;89.29;95528.31;5028370;28;20207;-63
2023/03/01 00:04:04;;;;;;;2.97;2.78;;;;;;;7.14;89.76;95519.88;5029192;28;20222;-65
2023/03/01 00:06:31;;;;;;;3.00;2.80;;;;;;;7.10;89.48;95523.28;5029373;28;20676;-65
2023/03/01 00:08:58;;;;;;;3.30;3.10;;;;;;;7.10;90.27;95529.19;5028430;28;20872;-67
2023/03/01 00:11:28;;;;;;;4.53;3.78;;;;;;;7.03;89.91;95526.75;5028613;28;20202;-60
2023/03/01 00:13:57;;;;;;;3.20;3.00;;;;;;;6.99;90.74;95520.06;5028244;28;20566;-63
2023/03/01 00:16:27;;;;;;;4.13;3.72;;;;;;;6.93;90.50;95510.84;5029015;28;20285;-68
2023/03/01 00:18:55;;;;;;;3.65;3.35;;;;;;;6.97;90.36;95509.13;5028377;28;20688;-67
2023/03/01 00:21:22;;;;;;;3.50;3.30;;;;;;;6.99;90.53;95510.78;5028631;28;20214;-59
2023/03/01 00:23:49;;;;;;;3.72;3.42;;;;;;;7.04;90.71;95500.63;5030295;28;20202;-66
2023/03/01 00:26:18;;;;;;;2.65;2.50;;;;;;;6.93;89.93;95505.00;5030108;28;20255;-69
2023/03/01 00:28:46;;;;;;;2.97;2.67;;;;;;;6.85;90.50;95504.25;5027821;28;20222;-64
2023/03/01 00:31:15;;;;;;;2.70;2.50;;;;;;;6.78;90.57;95500.94;5028461;28;20211;-64
2023/03/01 00:33:43;;;;;;;2.50;2.35;;;;;;;6.74;90.33;95487.50;5029578;28;20215;-67
2023/03/01 00:36:11;;;;;;;2.90;2.70;;;;;;;6.71;91.48;95479.97;5025539;28;20206;-60
2023/03/01 00:38:39;;;;;;;2.70;2.58;;;;;;;6.77;90.90;95477.38;5028937;28;20934;-67
2023/03/01 00:41:06;;;;;;;2.33;2.22;;;;;;;6.71;90.28;95459.75;5026140;28;20797;-64
2023/03/01 00:43:36;;;;;;;2.70;2.60;;;;;;;6.81;90.46;95470.59;5028679;28;20704;-62
2023/03/01 00:46:05;;;;;;;4.85;2.25;;;;;;;6.64;90.36;95470.81;5030605;28;21752;-62
2023/03/01 00:48:32;;;;;;;2.92;2.38;;;;;;;6.58;91.60;95483.50;5022856;28;20202;-60
2023/03/01 00:51:05;;;;;;;2.58;2.38;;;;;;;6.68;90.49;95474.13;5015664;28;20677;-63
2023/03/01 00:53:32;;;;;;;2.42;2.22;;;;;;;6.76;90.56;95485.81;5017800;28;20209;-61
2023/03/01 00:55:59;;;;;;;2.03;1.92;;;;;;;6.64;90.69;95488.50;5016470;28;20206;-65
2023/03/01 00:58:26;;;;;;;2.60;2.40;;;;;;;6.64;90.99;95477.56;5018738;28;20233;-65
2023/03/01 01:00:53;;;;;;;2.75;2.60;;;;;;;6.63;91.55;95476.72;5019949;28;22179;-66
2023/03/01 01:03:21;;;;;;;2.35;2.25;;;;;;;6.62;90.81;95475.03;5017522;28;21877;-70
2023/03/01 01:05:48;;;;;;;1.83;1.73;;;;;;;6.57;90.90;95476.78;5020019;28;20211;-67
2023/03/01 01:08:14;;;;;;;3.35;3.05;;;;;;;6.52;92.11;95480.19;5020747;28;20207;-65
2023/03/01 01:10:44;;;;;;;1.48;1.48;;;;;;;6.44;91.99;95490.38;5019365;28;20218;-66
2023/03/01 01:13:10;;;;;;;2.33;2.22;;;;;;;6.51;91.38;95481.06;5017772;28;20214;-61
2023/03/01 01:15:37;;;;;;;2.45;2.35;;;;;;;6.55;90.94;95487.75;5020254;28;20210;-66
2023/03/01 01:18:04;;;;;;;2.45;2.35;;;;;;;6.57;91.33;95491.94;5021695;28;20221;-65
2023/03/01 01:20:32;;;;;;;2.35;2.22;;;;;;;6.72;91.04;95483.31;5017598;28;20212;-67
2023/03/01 01:22:59;;;;;;;3.15;2.95;;;;;;;6.72;89.51;95484.16;5013208;28;20199;-65
2023/03/01 01:25:26;;;;;;;2.25;2.15;;;;;;;6.65;90.09;95479.22;5023821;28;21803;-67
2023/03/01 01:27:54;;;;;;;18.85;2.80;;;;;;;6.52;90.88;95477.69;5015989;28;20207;-58
2023/03/01 01:30:20;;;;;;;2.53;2.42;;;;;;;6.51;91.08;95478.53;5020507;28;20714;-60
2023/03/01 01:32:47;;;;;;;2.30;2.20;;;;;;;6.59;89.62;95476.75;5019504;28;20253;-62
2023/03/01 01:35:14;;;;;;;2.63;2.42;;;;;;;6.55;89.99;95480.16;5018196;28;20206;-61
2023/03/01 01:37:42;;;;;;;2.40;2.22;;;;;;;6.64;89.63;95487.66;5016621;28;20299;-62
2023/03/01 01:40:11;;;;;;;2.80;2.70;;;;;;;6.58;89.35;95488.56;5019931;28;20619;-67
2023/03/01 01:42:37;;;;;;;2.78;2.53;;;;;;;6.60;89.16;95499.47;5021166;28;20207;-66
2023/03/01 01:45:31;;;;;;;3.38;3.17;;;;;;;6.59;88.89;95504.53;5021284;28;20744;-65
2023/03/01 01:48:02;;;;;;;2.53;2.42;;;;;;;6.50;89.27;95500.41;5013505;28;20585;-64
2023/03/01 01:50:37;;;;;;;2.88;2.78;;;;;;;6.45;88.80;95497.94;5017691;28;20238;-62
2023/03/01 01:53:07;;;;;;;2.67;2.47;;;;;;;6.48;88.89;95497.06;5023694;28;20206;-59
2023/03/01 01:55:37;;;;;;;2.60;2.50;;;;;;;6.45;89.16;95490.34;5024380;28;20202;-60
2023/03/01 01:58:06;;;;;;;2.58;2.13;;;;;;;6.54;88.48;95491.97;5026155;28;20226;-61
2023/03/01 02:00:33;;;;;;;2.67;2.08;;;;;;;6.63;88.70;95484.28;5023320;28;20207;-64
2023/03/01 02:03:02;;;;;;;2.60;2.50;;;;;;;6.62;88.37;95485.13;5024297;28;20710;-61
2023/03/01 02:05:36;;;;;;;3.00;2.85;;;;;;;6.59;88.18;95482.66;5023221;28;20209;-63
2023/03/01 02:08:03;;;;;;;2.22;2.10;;;;;;;6.62;88.21;95476.72;5024971;28;20203;-61
2023/03/01 02:10:35;;;;;;;1.92;1.83;;;;;;;6.63;87.02;95461.56;5025541;28;20202;-64
2023/03/01 02:13:03;;;;;;;1.77;1.73;;;;;;;6.61;87.07;95463.25;5024898;28;20203;-64
2023/03/01 02:15:34;;;;;;;2.55;2.35;;;;;;;6.58;86.81;95443.09;5023950;28;20202;-69
2023/03/01 02:18:02;;;;;;;3.35;3.15;;;;;;;6.74;86.67;95449.63;5027554;28;20916;-59
2023/03/01 02:20:36;;;;;;;2.05;1.95;;;;;;;6.76;85.59;95452.97;5022853;28;20447;-66
2023/03/01 02:23:03;;;;;;;2.75;2.55;;;;;;;6.87;85.03;95439.38;5028380;28;20206;-66
2023/03/01 02:25:41;;;;;;;3.53;3.22;;;;;;;6.80;85.65;95457.13;5026379;28;20279;-61
2023/03/01 02:28:12;;;;;;;2.13;2.03;;;;;;;6.96;85.34;95450.19;5024801;28;20216;-62
2023/03/01 02:31:41;;;;;;;1.83;1.73;;;;;;;6.86;86.10;95453.69;5025655;28;22554;-60
2023/03/01 02:33:28;;;;;;;2.00;1.90;;;;;;;6.76;86.01;95452.13;5023195;28;20763;-62
2023/03/01 02:35:56;;;;;;;1.40;1.40;;;;;;;6.85;85.40;95463.81;5022774;28;22572;-64
2023/03/01 02:38:24;;;;;;;5.15;1.77;;;;;;;6.81;85.07;95471.44;5024102;28;20283;-63
2023/03/01 02:40:52;;;;;;;1.20;1.20;;;;;;;6.71;85.46;95474.91;5025735;28;20233;-60
2023/03/01 02:43:20;;;;;;;1.67;1.58;;;;;;;6.63;86.57;95471.66;5026189;28;20203;-64
2023/03/01 02:45:52;;;;;;;2.28;2.17;;;;;;;6.63;87.27;95476.72;5025100;28;20714;-63
2023/03/01 02:48:19;;;;;;;2.90;2.70;;;;;;;6.72;86.48;95465.66;5026399;28;20206;-61
2023/03/01 02:51:04;;;;;;;2.25;2.15;;;;;;;6.68;87.66;95472.41;5025352;28;20753;-66
2023/03/01 02:53:39;;;;;;;2.30;2.20;;;;;;;6.69;87.74;95471.56;5024748;28;20202;-64
2023/03/01 02:56:12;;;;;;;2.35;2.20;;;;;;;6.70;87.23;95458.09;5026595;28;20201;-61
2023/03/01 02:58:45;;;;;;;2.63;2.42;;;;;;;6.63;87.77;95464.09;5025754;28;20622;-63
2023/03/01 03:01:14;;;;;;;2.35;2.25;;;;;;;6.75;87.50;95461.41;5025739;28;20206;-62
2023/03/01 03:03:42;;;;;;;1.73;1.63;;;;;;;6.71;87.18;95466.50;5026112;28;20206;-63
2023/03/01 03:06:09;;;;;;;2.42;2.33;;;;;;;6.74;86.78;95458.88;5024112;28;20335;-61
2023/03/01 03:08:36;;;;;;;2.28;2.17;;;;;;;6.64;87.40;95460.72;5024121;28;20208;-63
2023/03/01 03:11:03;;;;;;;2.47;2.20;;;;;;;6.62;87.48;95459.06;5024867;28;20198;-68
2023/03/01 03:13:30;;;;;;;2.08;1.98;;;;;;;6.66;86.64;95461.53;5023157;28;20210;-61
2023/03/01 03:15:57;;;;;;;1.38;1.33;;;;;;;6.61;86.84;95467.47;5025202;28;20256;-64
2023/03/01 03:18:26;;;;;;;2.05;1.95;;;;;;;6.71;87.57;95469.03;5024020;28;20258;-60
2023/03/01 03:20:54;;;;;;;2.22;2.13;;;;;;;6.62;87.71;95464.94;5022714;28;20202;-63
2023/03/01 03:23:22;;;;;;;2.00;1.90;;;;;;;6.62;86.65;95479.25;5023329;28;20203;-63
2023/03/01 03:25:50;;;;;;;2.28;2.17;;;;;;;6.51;87.25;95476.00;5023415;28;20203;-64
2023/03/01 03:28:16;;;;;;;2.47;2.38;;;;;;;6.54;87.29;95471.75;5019378;28;21628;-66
2023/03/01 03:30:46;;;;;;;2.55;2.40;;;;;;;6.68;87.29;95474.13;5023741;28;20229;-64
2023/03/01 03:33:13;;;;;;;2.45;2.35;;;;;;;6.60;87.69;95481.78;5024935;28;20650;-66
2023/03/01 03:35:44;;;;;;;2.42;2.33;;;;;;;6.61;87.28;95475.06;5023018;28;20211;-65
2023/03/01 03:38:16;;;;;;;2.40;2.30;;;;;;;6.59;86.81;95482.66;5024766;28;20206;-62
2023/03/01 03:40:45;;;;;;;5.13;2.55;;;;;;;6.54;87.68;95489.44;5026388;28;20308;-66
2023/03/01 03:43:33;;;;;;;2.67;2.38;;;;;;;6.59;87.86;95482.66;5026036;28;20706;-66
2023/03/01 03:46:00;;;;;;;2.10;2.00;;;;;;;6.54;88.12;95481.84;5024885;28;20661;-60
2023/03/01 03:48:27;;;;;;;2.70;2.33;;;;;;;6.43;87.23;95488.72;5024306;28;20203;-65
2023/03/01 03:50:57;;;;;;;2.63;2.53;;;;;;;6.62;87.29;95489.34;5026571;28;20271;-67
2023/03/01 03:53:26;;;;;;;3.17;2.97;;;;;;;6.65;87.16;95501.94;5028058;28;20206;-65
2023/03/01 03:55:54;;;;;;;3.20;3.00;;;;;;;6.47;87.95;95486.13;5021484;28;20209;-60
2023/03/01 03:58:22;;;;;;;2.58;2.47;;;;;;;6.51;87.55;95486.94;5028112;28;20205;-63
2023/03/01 04:00:52;;;;;;;6.10;2.47;;;;;;;6.65;87.38;95487.63;5029242;28;20595;-64
2023/03/01 04:03:20;;;;;;;3.25;3.05;;;;;;;6.58;87.61;95483.50;5030554;28;20244;-65
2023/03/01 04:05:47;;;;;;;3.47;3.25;;;;;;;6.59;87.12;95486.88;5024402;28;20684;-63
2023/03/01 04:08:16;;;;;;;2.60;2.45;;;;;;;6.64;86.87;95488.50;5024517;28;21894;-63
2023/03/01 04:10:46;;;;;;;2.92;2.72;;;;;;;6.65;87.27;95485.13;5028347;28;20237;-59
2023/03/01 04:13:14;;;;;;;2.47;2.35;;;;;;;6.48;88.03;95494.53;5027055;28;22565;-65
2023/03/01 04:15:42;;;;;;;2.70;2.50;;;;;;;6.37;88.62;95498.88;5026212;28;20672;-63
2023/03/01 04:18:11;;;;;;;2.80;2.20;;;;;;;6.47;88.03;95495.41;5025929;28;20209;-60
2023/03/01 04:20:38;;;;;;;2.55;2.45;;;;;;;6.58;88.33;95493.59;5028679;28;20211;-62
2023/03/01 04:23:15;;;;;;;2.60;2.40;;;;;;;6.45;88.03;95500.47;5028048;28;20295;-61
2023/03/01 04:25:49;;;;;;;1.88;1.77;;;;;;;6.32;88.69;95490.53;5027640;28;20279;-62
2023/03/01 04:28:16;;;;;;;2.78;2.58;;;;;;;6.19;89.95;95492.31;5028586;28;20751;-67
2023/03/01 04:30:43;;;;;;;3.00;2.80;;;;;;;6.27;89.42;95487.19;5029615;28;20212;-63
2023/03/01 04:33:12;;;;;;;2.72;2.50;;;;;;;6.46;88.47;95493.72;5031206;28;20203;-64
2023/03/01 04:35:40;;;;;;;2.60;2.40;;;;;;;6.41;88.05;95492.97;5027610;28;20205;-60
2023/03/01 04:38:07;;;;;;;2.65;2.45;;;;;;;6.46;88.43;95499.59;5027232;28;20202;-60
2023/03/01 04:40:34;;;;;;;2.83;2.45;;;;;;;6.46;88.42;95489.50;5027372;28;20792;-61
2023/03/01 04:43:03;;;;;;;2.30;2.20;;;;;;;6.54;88.32;95484.38;5030204;28;20210;-64
2023/03/01 04:45:30;;;;;;;2.38;2.28;;;;;;;6.26;88.52;95485.53;5028987;28;20205;-66
2023/03/01 04:47:59;;;;;;;2.55;2.35;;;;;;;6.52;87.62;95482.72;5028498;28;20218;-63
2023/03/01 04:50:26;;;;;;;7.80;2.63;;;;;;;6.51;88.04;95481.06;5027054;28;20768;-61
2023/03/01 04:52:53;;;;;;;2.60;2.42;;;;;;;6.51;87.54;95481.88;5026669;28;20293;-61
2023/03/01 04:55:20;;;;;;;2.65;2.50;;;;;;;6.49;88.23;95479.38;5028533;28;20202;-69
2023/03/01 04:57:47;;;;;;;2.85;2.65;;;;;;;6.62;87.68;95479.25;5028139;28;20296;-65
2023/03/01 05:00:22;;;;;;;4.65;2.30;;;;;;;6.53;87.94;95482.72;5027784;28;20284;-64
2023/03/01 05:02:53;;;;;;;2.25;2.15;;;;;;;6.54;88.22;95476.81;5028018;28;20202;-62
2023/03/01 05:05:25;;;;;;;2.53;2.42;;;;;;;6.42;87.74;95452.56;5027967;28;20649;-67
2023/03/01 05:07:52;;;;;;;3.28;2.95;;;;;;;6.55;87.50;95480.16;5028984;28;21761;-63
2023/03/01 05:10:19;;;;;;;2.88;2.67;;;;;;;6.33;88.36;95472.84;5027151;28;20285;-68
2023/03/01 05:12:46;;;;;;;3.15;2.85;;;;;;;6.26;88.22;95476.25;5029489;28;20198;-64
2023/03/01 05:15:14;;;;;;;2.88;2.78;;;;;;;6.16;89.00;95489.84;5028102;28;20263;-65
2023/03/01 05:17:42;;;;;;;3.08;2.83;;;;;;;6.10;90.05;95479.81;5028306;28;20206;-59
2023/03/01 05:20:10;;;;;;;3.75;3.45;;;;;;;6.11;89.69;95487.38;5025775;28;20715;-66
2023/03/01 05:22:37;;;;;;;3.25;3.05;;;;;;;6.21;89.10;95497.34;5028750;28;20343;-60
2023/03/01 05:25:05;;;;;;;3.55;3.35;;;;;;;6.23;89.55;95495.66;5029549;28;20206;-61
2023/03/01 05:27:31;;;;;;;3.90;3.53;;;;;;;6.12;90.18;95494.09;5027756;28;20202;-62
2023/03/01 05:29:58;;;;;;;3.67;3.33;;;;;;;6.06;90.31;95489.09;5027051;28;20207;-61
2023/03/01 05:32:25;;;;;;;4.05;3.63;;;;;;;6.02;90.03;95487.44;5029006;28;20206;-68
2023/03/01 05:34:54;;;;;;;3.47;3.28;;;;;;;6.07;90.31;95490.75;5028281;28;20596;-65
2023/03/01 05:37:21;;;;;;;4.45;3.13;;;;;;;6.12;90.25;95489.03;5027688;28;20290;-59
2023/03/01 05:39:50;;;;;;;3.90;3.40;;;;;;;6.07;90.29;95490.75;5025989;28;20667;-65
2023/03/01 05:42:16;;;;;;;5.55;3.97;;;;;;;6.08;90.46;95491.59;5028151;28;20203;-65
2023/03/01 05:44:43;;;;;;;4.22;3.92;;;;;;;6.10;89.98;95500.81;5026317;28;22091;-65
2023/03/01 05:47:10;;;;;;;4.00;3.70;;;;;;;6.08;90.16;95501.69;5027067;28;20205;-63
2023/03/01 05:49:36;;;;;;;4.90;4.32;;;;;;;6.06;90.36;95496.66;5026642;28;22246;-64
2023/03/01 05:52:05;;;;;;;3.88;3.58;;;;;;;6.13;90.06;95499.97;5027414;28;20219;-63
2023/03/01 05:54:33;;;;;;;4.28;3.88;;;;;;;6.22;89.75;95514.16;5025548;28;20749;-67
2023/03/01 05:56:59;;;;;;;4.25;3.95;;;;;;;6.04;89.64;95521.06;5026349;28;20685;-63
2023/03/01 05:59:26;;;;;;;3.35;3.05;;;;;;;5.90;90.49;95525.41;5025673;28;20605;-61
2023/03/01 06:01:53;;;;;;;3.95;3.35;;;;;;;6.06;89.59;95526.94;5026091;28;20222;-64
2023/03/01 06:04:20;;;;;;;3.08;2.78;;;;;;;6.26;89.32;95515.81;5027191;28;20244;-62
2023/03/01 06:06:47;;;;;;;3.65;3.03;;;;;;;6.16;89.19;95527.69;5027252;28;20283;-64
2023/03/01 06:09:15;;;;;;;4.43;3.92;;;;;;;6.14;89.09;95527.72;5026015;28;21852;-61
2023/03/01 06:11:42;;;;;;;3.85;3.55;;;;;;;6.28;89.25;95519.16;5025994;28;20215;-66
2023/03/01 06:14:10;;;;;;;3.40;3.17;;;;;;;6.34;87.92;95529.22;5026996;28;20762;-59
2023/03/01 06:16:37;;;;;;;3.42;3.13;;;;;;;6.25;89.06;95534.34;5026445;28;20729;-58
2023/03/01 06:19:03;;;;;;;4.95;4.28;;;;;;;6.24;89.24;95533.50;5025537;28;20663;-62
2023/03/01 06:21:30;;;;;;;4.15;3.85;;;;;;;6.14;89.31;95534.44;5026599;28;22087;-65
2023/03/01 06:23:57;;;;;;;4.38;4.15;;;;;;;6.11;90.02;95537.81;5027241;28;20206;-65
2023/03/01 06:26:25;;;;;;;3.97;3.50;;;;;;;6.14;90.05;95537.81;5028041;28;20202;-65
2023/03/01 06:28:51;;;;;;;3.53;3.33;;;;;;;6.13;89.42;95541.19;5026702;28;20732;-65
2023/03/01 06:31:18;;;;;;;4.18;3.85;;;;;;;6.14;89.55;95534.44;5026899;28;20210;-66
2023/03/01 06:33:45;;;;;;;4.82;3.97;;;;;;;6.15;90.24;95528.56;5026514;28;20206;-64
2023/03/01 06:36:12;;;;;;;3.75;3.05;;;;;;;6.14;90.17;95537.81;5027916;28;20287;-63
2023/03/01 06:38:40;;;;;;;2.58;2.42;;;;;;;6.21;89.33;95545.28;5025498;28;20232;-62
2023/03/01 06:41:07;;;;;;;3.30;2.95;;;;;;;6.18;89.78;95535.25;5026050;28;20740;-63
2023/03/01 06:43:35;;;;;;;2.75;2.55;;;;;;;6.20;89.47;95541.09;5027308;28;20205;-65
2023/03/01 06:46:06;;;;;;;4.47;2.63;;;;;;;6.38;88.81;95538.44;5025459;28;20518;-66
2023/03/01 06:48:33;;;;;;;4.32;2.97;;;;;;;6.39;88.24;95535.06;5027742;28;20202;-64
2023/03/01 06:51:00;;;;;;;3.47;3.05;;;;;;;6.42;87.78;95527.44;5015457;28;20246;-62
2023/03/01 06:53:27;;;;;;;2.58;2.38;;;;;;;6.51;87.37;95527.34;5018785;28;20710;-66
2023/03/01 06:55:55;;;;;;;2.97;2.70;;;;;;;6.59;87.24;95525.56;5018512;28;20205;-66
2023/03/01 06:58:22;;;;;;;3.33;3.03;;;;;;;6.51;86.51;95532.38;5017123;28;20219;-62
2023/03/01 07:00:50;;;;;;;2.90;2.58;;;;;;;6.47;87.69;95535.78;5019559;28;20229;-64
2023/03/01 07:03:17;;;;;;;3.35;3.13;;;;;;;6.61;86.61;95533.13;5017471;28;20203;-61
2023/03/01 07:05:44;;;;;;;6.70;2.80;;;;;;;6.64;86.54;95539.00;5017556;28;20335;-62
2023/03/01 07:08:11;;;;;;;7.07;3.20;;;;;;;6.77;86.02;95542.22;5017182;28;20561;-64
2023/03/01 07:10:37;;;;;;;4.88;3.35;;;;;;;6.76;85.51;95543.06;5018812;28;20198;-67
2023/03/01 07:13:06;;;;;;;6.35;3.10;;;;;;;6.86;85.22;95533.69;5018312;28;20202;-67
2023/03/01 07:15:33;;;;;;;3.60;3.40;;;;;;;6.97;85.03;95536.91;5020545;28;20214;-64
2023/03/01 07:18:01;;;;;;;3.78;3.50;;;;;;;6.91;85.34;95526.91;5016265;28;20203;-65
2023/03/01 07:20:29;;;;;;;3.83;3.33;;;;;;;7.07;84.02;95528.38;5016103;28;20587;-62
2023/03/01 07:22:58;;;;;;;5.25;2.72;;;;;;;7.11;84.13;95530.03;5020805;28;20276;-63
2023/03/01 07:25:25;;;;;;;3.33;3.10;;;;;;;7.18;84.27;95529.06;5020684;28;20202;-61
2023/03/01 07:27:52;;;;;;;3.47;2.85;;;;;;;7.11;83.99;95520.75;5023143;28;20211;-64
2023/03/01 07:30:20;;;;;;;3.80;3.10;;;;;;;7.17;84.08;95524.91;5025413;28;20203;-65
2023/03/01 07:32:46;;;;;;;3.38;3.08;;;;;;;7.18;83.68;95525.72;5022163;28;20250;-64
2023/03/01 07:35:15;;;;;;;3.20;2.90;;;;;;;7.18;84.30;95512.19;5018323;28;20708;-63
2023/03/01 07:37:42;;;;;;;4.28;3.78;;;;;;;7.49;83.72;95517.69;5019545;28;20938;-63
2023/03/01 07:40:10;;;;;;;2.13;2.03;;;;;;;7.45;82.34;95526.16;5017404;28;20231;-62
2023/03/01 07:42:37;;;;;;;5.90;3.05;;;;;;;7.66;82.52;95521.69;5021019;28;20206;-61
2023/03/01 07:45:04;;;;;;;4.78;2.85;;;;;;;7.73;81.25;95530.81;5019743;28;20279;-66
2023/03/01 07:47:31;;;;;;;5.03;3.25;;;;;;;7.54;81.79;95524.38;5019584;28;20293;-63
2023/03/01 07:49:58;;;;;;;4.20;2.92;;;;;;;7.31;82.71;95527.22;5020828;28;20288;-62
2023/03/01 07:52:26;;;;;;;3.60;2.97;;;;;;;7.31;82.20;95510.38;5025373;28;20207;-64
2023/03/01 07:54:53;;;;;;;4.20;2.63;;;;;;;7.55;81.67;95516.75;5020625;28;20226;-66
2023/03/01 07:57:19;;;;;;;3.65;2.95;;;;;;;7.53;81.20;95523.53;5021766;28;20201;-67
2023/03/01 07:59:46;;;;;;;5.38;2.53;;;;;;;7.61;80.50;95500.66;5024238;28;20657;-64
2023/03/01 08:02:14;;;;;;;2.63;2.42;;;;;;;7.77;79.73;95512.22;5015203;28;20209;-62
2023/03/01 08:04:41;;;;;;;2.90;2.60;;;;;;;7.70;80.17;95510.63;5022579;28;20822;-61
2023/03/01 08:07:08;;;;;;;3.53;2.40;;;;;;;7.47;80.33;95504.22;5021095;28;20210;-64
2023/03/01 08:09:37;;;;;;;3.45;3.15;;;;;;;7.53;80.89;95499.94;5021064;28;20625;-68
2023/03/01 08:12:04;;;;;;;3.17;2.60;;;;;;;7.48;79.88;95488.19;5023382;28;20715;-66
2023/03/01 08:14:31;;;;;;;4.15;2.90;;;;;;;7.76;79.72;95500.44;5020043;28;20222;-66
2023/03/01 08:16:58;;;;;;;3.60;2.72;;;;;;;7.99;78.79;95498.34;5023511;28;20203;-64
2023/03/01 08:19:25;;;;;;;4.10;3.80;;;;;;;8.01;78.33;95495.81;5023101;28;20459;-61
2023/03/01 08:21:52;;;;;;;3.47;2.53;;;;;;;8.00;78.45;95509.31;5021831;28;20231;-60
2023/03/01 08:24:18;;;;;;;7.90;2.47;;;;;;;8.17;78.13;95502.25;5019103;28;20213;-65
2023/03/01 08:26:47;;;;;;;2.65;2.25;;;;;;;8.34;77.09;95510.47;5021592;28;20210;-64
2023/03/01 08:29:13;;;;;;;2.67;2.47;;;;;;;8.15;77.43;95499.78;5021224;28;20207;-63
2023/03/01 08:31:40;;;;;;;8.18;2.15;;;;;;;8.16;77.85;95493.88;5020071;28;20203;-62
2023/03/01 08:34:10;;;;;;;2.70;2.58;;;;;;;8.09;77.50;95494.81;5022425;28;20202;-60
2023/03/01 08:36:39;;;;;;;2.53;2.35;;;;;;;8.20;77.45;95500.50;5020327;28;20668;-67
2023/03/01 08:39:07;;;;;;;7.95;2.20;;;;;;;8.12;76.94;95482.13;5021999;28;20211;-61
2023/03/01 08:41:34;;;;;;;2.85;2.65;;;;;;;8.15;77.59;95497.25;5020757;28;20233;-64
2023/03/01 08:44:02;;;;;;;2.20;2.10;;;;;;;7.87;78.52;95498.56;5016419;28;20214;-60
2023/03/01 08:46:30;;;;;;;2.40;2.30;;;;;;;7.90;78.47;95497.69;5023253;28;20207;-61
2023/03/01 08:48:56;;;;;;;2.88;2.67;;;;;;;8.15;78.48;95488.81;5020865;28;22083;-66
2023/03/01 08:51:24;;;;;;;6.97;3.13;;;;;;;8.20;77.06;95499.69;5020605;28;20241;-66
2023/03/01 08:53:51;;;;;;;4.55;3.10;;;;;;;8.20;77.03;95497.97;5017982;28;20210;-62
2023/03/01 08:56:19;;;;;;;3.33;3.15;;;;;;;8.25;77.30;95499.59;5018481;28;20207;-62
2023/03/01 08:58:46;;;;;;;2.40;2.30;;;;;;;8.28;76.64;95484.38;5019357;28;20210;-67
2023/03/01 09:01:17;;;;;;;2.42;2.22;;;;;;;8.44;75.76;95516.16;5019629;28;20230;-64
2023/03/01 09:03:44;;;;;;;2.90;2.70;;;;;;;8.36;75.63;95502.84;5019923;28;20211;-66
2023/03/01 09:06:12;;;;;;;2.30;2.20;;;;;;;8.38;74.64;95496.88;5019270;28;20209;-64
2023/03/01 09:08:39;;;;;;;2.47;2.28;;;;;;;8.40;74.01;95479.13;5017967;28;20553;-62
2023/03/01 09:11:07;;;;;;;4.95;2.47;;;;;;;8.63;73.76;95487.13;5016964;28;20199;-64
2023/03/01 09:13:34;;;;;;;2.72;2.55;;;;;;;8.99;72.79;95498.22;5022440;28;20221;-65
2023/03/01 09:16:03;;;;;;;2.53;2.22;;;;;;;9.00;71.43;95486.38;5022484;28;20215;-65
2023/03/01 09:18:31;;;;;;;2.40;2.30;;;;;;;9.03;70.95;95512.50;5018336;28;20673;-64
2023/03/01 09:21:07;;;;;;;2.40;2.30;;;;;;;8.97;71.84;95488.97;5019299;28;20765;-63
2023/03/01 09:23:34;;;;;;;4.40;2.53;;;;;;;9.09;71.01;95491.25;5019811;28;20282;-67
2023/03/01 09:26:01;;;;;;;1.65;1.55;;;;;;;8.77;71.43;95497.81;5019278;28;20207;-63
2023/03/01 09:28:28;;;;;;;2.15;2.05;;;;;;;8.89;71.84;95494.22;5018895;28;20207;-61
2023/03/01 09:30:54;;;;;;;1.73;1.63;;;;;;;9.02;71.88;95484.66;5016589;28;20202;-63
2023/03/01 09:33:21;;;;;;;2.80;1.77;;;;;;;9.03;72.02;95492.22;5018759;28;20218;-63
2023/03/01 09:35:49;;;;;;;4.25;2.60;;;;;;;9.05;72.52;95497.25;5016661;28;20214;-62
2023/03/01 09:38:16;;;;;;;2.15;2.05;;;;;;;8.81;72.53;95496.91;5018885;28;20229;-66
2023/03/01 09:40:46;;;;;;;1.90;1.80;;;;;;;8.73;73.05;95488.59;5021862;28;20230;-64
2023/03/01 09:43:21;;;;;;;2.10;2.00;;;;;;;8.77;73.44;95477.53;5019155;28;20697;-62
2023/03/01 09:45:50;;;;;;;2.22;2.08;;;;;;;8.70;73.01;95482.75;5018800;28;20214;-64
2023/03/01 09:48:21;;;;;;;2.15;2.05;;;;;;;8.74;73.68;95485.19;5014953;28;20276;-63
2023/03/01 09:50:50;;;;;;;1.92;1.83;;;;;;;8.77;73.31;95480.06;5018865;28;20241;-64
2023/03/01 09:53:20;;;;;;;2.55;2.40;;;;;;;8.93;73.64;95477.22;5016864;28;20203;-64
2023/03/01 09:55:52;;;;;;;2.40;1.90;;;;;;;9.07;72.60;95477.78;5018998;28;20210;-64
2023/03/01 09:58:44;;;;;;;1.60;1.50;;;;;;;9.02;73.05;95464.38;5018849;28;20214;-64
2023/03/01 10:01:27;;;;;;;2.03;1.92;;;;;;;9.17;72.10;95469.09;5017605;28;20225;-65
2023/03/01 10:04:11;;;;;;;1.60;1.50;;;;;;;9.38;71.45;95453.44;5018682;28;20207;-62
2023/03/01 10:06:43;;;;;;;2.58;1.88;;;;;;;9.24;70.92;95473.19;5019724;28;20592;-62
2023/03/01 10:09:14;;;;;;;1.60;1.50;;;;;;;9.36;70.52;95465.31;5016097;28;20207;-63
2023/03/01 10:11:46;;;;;;;1.35;1.25;;;;;;;9.45;69.88;95454.09;5017994;28;20216;-63
2023/03/01 10:14:22;;;;;;;1.10;1.10;;;;;;;9.39;69.58;95475.38;5021870;28;20210;-72
2023/03/01 10:16:54;;;;;;;1.17;1.08;;;;;;;9.43;69.34;95455.84;5015419;28;20198;-65
2023/03/01 10:19:26;;;;;;;3.38;1.83;;;;;;;9.60;69.50;95453.75;5016929;28;20202;-64
2023/03/01 10:21:55;;;;;;;7.28;2.03;;;;;;;9.91;68.52;95448.75;5020630;28;21057;-61
2023/03/01 10:24:22;;;;;;;3.65;1.60;;;;;;;9.80;68.78;95450.75;5016206;28;20221;-67
2023/03/01 10:26:56;;;;;;;3.00;2.80;;;;;;;9.50;69.61;95452.31;5013926;28;20207;-62
2023/03/01 10:29:30;;;;;;;3.88;1.95;;;;;;;9.43;70.04;95459.22;5018652;28;20205;-63
2023/03/01 10:31:57;;;;;;;2.50;2.35;;;;;;;9.45;70.50;95449.88;5018275;28;20197;-69
2023/03/01 10:34:29;;;;;;;1.88;1.77;;;;;;;9.66;69.85;95442.59;5014172;28;20261;-65
2023/03/01 10:37:09;;;;;;;2.05;1.45;;;;;;;9.58;69.30;95457.22;5015111;28;20206;-65
2023/03/01 10:39:36;;;;;;;2.40;2.20;;;;;;;9.75;68.79;95434.78;5016247;28;20236;-65
2023/03/01 10:42:05;;;;;;;1.42;1.33;;;;;;;9.83;67.93;95440.53;5018805;28;20226;-61
2023/03/01 10:44:42;;;;;;;2.00;1.63;;;;;;;9.71;68.00;95448.41;5011303;28;20675;-63
2023/03/01 10:47:15;;;;;;;1.80;1.67;;;;;;;9.44;69.54;95453.25;5020702;28;20311;-60
2023/03/01 10:49:53;;;;;;;1.70;1.60;;;;;;;9.40;69.93;95433.91;5022937;28;20724;-65
2023/03/01 10:52:23;;;;;;;2.00;1.90;;;;;;;9.51;69.15;95438.75;5019774;28;20581;-67
2023/03/01 10:54:56;;;;;;;2.45;1.30;;;;;;;9.21;70.25;95427.59;5016561;28;20203;-64
2023/03/01 10:57:31;;;;;;;2.00;1.90;;;;;;;9.29;70.41;95422.34;5021996;28;20288;-66
2023/03/01 11:00:20;;;;;;;1.88;1.73;;;;;;;9.40;69.44;95431.38;5023258;28;20213;-67
2023/03/01 11:02:50;;;;;;;1.60;1.50;;;;;;;9.44;69.51;95437.22;5020290;28;20296;-64
2023/03/01 11:05:23;;;;;;;1.35;1.25;;;;;;;9.40;69.34;95436.44;5017794;28;20210;-62
2023/03/01 11:07:53;;;;;;;1.13;1.13;;;;;;;9.36;68.55;95434.03;5022660;28;20707;-66
2023/03/01 11:10:22;;;;;;;1.35;1.30;;;;;;;9.25;69.17;95444.41;5020871;28;20318;-65
2023/03/01 11:12:49;;;;;;;1.55;1.17;;;;;;;9.34;69.43;95430.69;5018295;28;20683;-63
2023/03/01 11:15:28;;;;;;;1.30;1.20;;;;;;;9.43;69.02;95436.38;5019693;28;20720;-66
2023/03/01 11:17:56;;;;;;;1.10;1.10;;;;;;;9.65;68.99;95435.91;5020843;28;20319;-64
2023/03/01 11:20:30;;;;;;;1.45;1.30;;;;;;;9.66;68.03;95417.22;5021303;28;20214;-65
2023/03/01 11:23:02;;;;;;;1.65;1.55;;;;;;;9.70;68.20;95421.38;5021344;28;20218;-59
2023/03/01 11:25:34;;;;;;;1.35;1.30;;;;;;;9.54;68.74;95423.47;5022017;28;20210;-68
2023/03/01 11:28:04;;;;;;;1.40;1.30;;;;;;;9.63;68.80;95428.31;5020362;28;20203;-65
2023/03/01 11:30:37;;;;;;;1.50;1.40;;;;;;;9.76;68.39;95423.75;5021536;28;20237;-65
2023/03/01 11:33:19;;;;;;;2.17;1.42;;;;;;;9.90;68.25;95412.38;5022684;28;20211;-67
2023/03/01 11:35:55;;;;;;;1.92;1.77;;;;;;;10.11;68.07;95420.34;5022321;28;20255;-61
2023/03/01 11:38:26;;;;;;;1.52;1.40;;;;;;;9.84;68.73;95411.72;5022467;28;20318;-61
2023/03/01 11:40:59;;;;;;;1.27;1.20;;;;;;;9.71;69.75;95407.81;5022819;28;20230;-67
2023/03/01 11:43:37;;;;;;;1.85;1.33;;;;;;;9.68;69.82;95410.41;5020032;28;20694;-64
2023/03/01 11:46:37;;;;;;;5.22;1.50;;;;;;;9.78;69.72;95400.00;5022923;28;20228;-65
2023/03/01 11:49:20;;;;;;;1.88;1.10;;;;;;;9.82;68.92;95393.16;5021861;28;20698;-68
2023/03/01 11:51:55;;;;;;;2.75;1.58;;;;;;;9.73;69.30;95385.78;5022916;28;20202;-65